createdAt,value
2018-02-18T00:00:13.036Z,102249.91
2018-02-18T00:02:40.591Z,102260.64
2018-02-18T00:05:08.152Z,102255.23
2018-02-18T00:07:35.759Z,102256.48
2018-02-18T00:10:03.318Z,102263.77
2018-02-18T00:12:30.877Z,102262.75
2018-02-18T00:15:04.142Z,102264.13
2018-02-18T00:17:32.630Z,102267.30
2018-02-18T00:20:01.023Z,102264.01
2018-02-18T00:22:28.578Z,102269.17
2018-02-18T00:24:56.130Z,102275.13
2018-02-18T00:27:23.678Z,102268.16
2018-02-18T00:29:51.279Z,102275.25
2018-02-18T00:32:18.843Z,102283.86
2018-02-18T00:34:47.173Z,102286.91
2018-02-18T00:37:14.728Z,102283.08
2018-02-18T00:39:43.072Z,102293.19
2018-02-18T00:42:10.627Z,102290.17
2018-02-18T00:44:39.102Z,102289.34
2018-02-18T00:47:06.654Z,102290.83
2018-02-18T00:49:34.988Z,102292.59
2018-02-18T00:52:02.540Z,102294.81
2018-02-18T00:54:30.087Z,102297.14
2018-02-18T00:56:57.672Z,102304.34
2018-02-18T00:59:26.134Z,102302.81
2018-02-18T01:01:53.730Z,102305.47
2018-02-18T01:04:21.317Z,102302.53
2018-02-18T01:06:48.910Z,102307.23
2018-02-18T01:09:16.471Z,102303.00
2018-02-18T01:11:44.750Z,102307.91
2018-02-18T01:14:12.302Z,102307.80
2018-02-18T01:16:40.764Z,102312.65
2018-02-18T01:19:09.072Z,102313.14
2018-02-18T01:21:37.408Z,102313.66
2018-02-18T01:24:05.904Z,102319.72
2018-02-18T01:26:34.389Z,102314.91
2018-02-18T01:29:02.679Z,102319.29
2018-02-18T01:31:30.234Z,102313.30
2018-02-18T01:33:58.597Z,102315.20
2018-02-18T01:36:26.989Z,102313.22
2018-02-18T01:38:54.539Z,102313.68
2018-02-18T01:41:23.127Z,102311.45
2018-02-18T01:43:51.615Z,102303.67
2018-02-18T01:46:19.208Z,102313.51
2018-02-18T01:48:46.782Z,102311.95
2018-02-18T01:51:15.347Z,102316.72
2018-02-18T01:53:43.725Z,102318.41
2018-02-18T01:56:12.057Z,102325.37
2018-02-18T01:58:39.642Z,102323.22
2018-02-18T02:01:08.136Z,102321.00
2018-02-18T02:03:35.687Z,102327.09
2018-02-18T02:06:03.239Z,102320.30
2018-02-18T02:08:31.486Z,102332.88
2018-02-18T02:10:59.035Z,102322.91
2018-02-18T02:13:26.635Z,102327.42
2018-02-18T02:15:54.187Z,102330.14
2018-02-18T02:18:22.538Z,102334.50
2018-02-18T02:20:50.870Z,102338.84
2018-02-18T02:23:18.466Z,102330.56
2018-02-18T02:25:46.027Z,102343.54
2018-02-18T02:28:13.578Z,102340.62
2018-02-18T02:30:41.130Z,102347.81
2018-02-18T02:33:08.679Z,102348.58
2018-02-18T02:35:36.268Z,102348.67
2018-02-18T02:38:03.832Z,102347.94
2018-02-18T02:40:32.203Z,102347.59
2018-02-18T02:42:59.746Z,102351.09
2018-02-18T02:45:27.337Z,102363.17
2018-02-18T02:47:54.932Z,102357.68
2018-02-18T02:50:22.643Z,102359.30
2018-02-18T02:52:50.232Z,102361.19
2018-02-18T02:55:17.782Z,102358.75
2018-02-18T02:57:45.381Z,102357.55
2018-02-18T03:00:12.998Z,102357.58
2018-02-18T03:02:40.559Z,102360.62
2018-02-18T03:05:08.116Z,102357.89
2018-02-18T03:07:35.737Z,102369.55
2018-02-18T03:10:03.293Z,102365.33
2018-02-18T03:12:30.854Z,102365.75
2018-02-18T03:14:58.413Z,102371.78
2018-02-18T03:17:25.973Z,102366.70
2018-02-18T03:19:53.560Z,102366.30
2018-02-18T03:22:21.110Z,102366.73
2018-02-18T03:24:48.662Z,102365.52
2018-02-18T03:27:16.246Z,102362.78
2018-02-18T03:29:43.794Z,102361.52
2018-02-18T03:32:11.357Z,102365.15
2018-02-18T03:34:39.010Z,102361.86
2018-02-18T03:37:06.564Z,102362.84
2018-02-18T03:39:34.111Z,102364.12
2018-02-18T03:42:01.731Z,102359.84
2018-02-18T03:44:29.288Z,102365.89
2018-02-18T03:46:56.844Z,102360.30
2018-02-18T03:49:24.395Z,102362.48
2018-02-18T03:51:51.945Z,102360.48
2018-02-18T03:54:19.495Z,102362.78
2018-02-18T03:56:47.051Z,102365.03
2018-02-18T03:59:14.652Z,102366.13
2018-02-18T04:01:42.208Z,102358.53
2018-02-18T04:04:09.764Z,102362.94
2018-02-18T04:06:37.309Z,102362.08
2018-02-18T04:09:04.858Z,102361.28
2018-02-18T04:11:32.442Z,102353.86
2018-02-18T04:13:59.991Z,102362.84
2018-02-18T04:16:27.547Z,102367.61
2018-02-18T04:18:55.098Z,102375.22
2018-02-18T04:21:22.695Z,102377.54
2018-02-18T04:23:50.248Z,102372.03
2018-02-18T04:26:17.838Z,102370.42
2018-02-18T04:28:45.398Z,102368.75
2018-02-18T04:31:12.986Z,102377.77
2018-02-18T04:33:40.540Z,102378.66
2018-02-18T04:36:08.156Z,102378.23
2018-02-18T04:38:35.711Z,102379.52
2018-02-18T04:41:03.302Z,102377.42
2018-02-18T04:43:30.903Z,102381.31
2018-02-18T04:45:58.456Z,102376.15
2018-02-18T04:48:26.059Z,102376.63
2018-02-18T04:50:53.607Z,102378.80
2018-02-18T04:53:21.191Z,102379.21
2018-02-18T04:55:48.739Z,102390.29
2018-02-18T04:58:16.291Z,102388.40
2018-02-18T05:00:43.842Z,102397.65
2018-02-18T05:03:11.449Z,102400.28
2018-02-18T05:05:38.995Z,102395.50
2018-02-18T05:08:06.556Z,102401.25
2018-02-18T05:10:34.111Z,102401.34
2018-02-18T05:13:01.668Z,102406.13
2018-02-18T05:15:29.253Z,102407.53
2018-02-18T05:17:56.803Z,102413.97
2018-02-18T05:20:24.390Z,102419.19
2018-02-18T05:22:51.943Z,102423.90
2018-02-18T05:25:19.537Z,102423.04
2018-02-18T05:27:47.097Z,102420.02
2018-02-18T05:30:14.657Z,102429.08
2018-02-18T05:32:42.212Z,102430.82
2018-02-18T05:35:09.811Z,102431.20
2018-02-18T05:37:37.363Z,102429.48
2018-02-18T05:40:04.946Z,102437.66
2018-02-18T05:42:32.503Z,102442.77
2018-02-18T05:45:00.970Z,102443.73
2018-02-18T05:47:28.562Z,102438.31
2018-02-18T05:49:56.111Z,102446.08
2018-02-18T05:52:23.702Z,102456.25
2018-02-18T05:54:51.253Z,102450.84
2018-02-18T05:57:18.849Z,102455.24
2018-02-18T05:59:46.404Z,102450.13
2018-02-18T06:02:14.047Z,102452.27
2018-02-18T06:04:41.593Z,102449.28
2018-02-18T06:07:09.187Z,102453.13
2018-02-18T06:09:36.744Z,102467.08
2018-02-18T06:12:04.342Z,102467.94
2018-02-18T06:14:31.890Z,102468.70
2018-02-18T06:16:59.474Z,102466.05
2018-02-18T06:19:27.076Z,102474.06
2018-02-18T06:21:54.633Z,102476.02
2018-02-18T06:24:22.219Z,102478.98
2018-02-18T06:26:49.775Z,102482.13
2018-02-18T06:29:17.363Z,102483.92
2018-02-18T06:31:44.920Z,102486.95
2018-02-18T06:34:12.467Z,102484.41
2018-02-18T06:36:40.023Z,102487.22
2018-02-18T06:39:07.583Z,102492.27
2018-02-18T06:41:35.139Z,102488.47
2018-02-18T06:44:02.696Z,102483.53
2018-02-18T06:46:30.301Z,102486.81
2018-02-18T06:48:57.928Z,102494.19
2018-02-18T06:51:25.488Z,102502.40
2018-02-18T06:53:53.054Z,102502.06
2018-02-18T06:56:20.602Z,102498.49
2018-02-18T06:58:48.159Z,102495.09
2018-02-18T07:01:15.838Z,102504.17
2018-02-18T07:03:43.384Z,102506.81
2018-02-18T07:06:10.940Z,102509.28
2018-02-18T07:08:38.491Z,102507.86
2018-02-18T07:11:06.052Z,102514.98
2018-02-18T07:13:33.641Z,102516.55
2018-02-18T07:16:01.235Z,102516.23
2018-02-18T07:18:28.834Z,102515.05
2018-02-18T07:20:56.387Z,102518.11
2018-02-18T07:23:23.948Z,102514.30
2018-02-18T07:25:51.498Z,102516.36
2018-02-18T07:28:19.051Z,102512.46
2018-02-18T07:30:46.649Z,102520.02
2018-02-18T07:33:14.198Z,102516.50
2018-02-18T07:35:41.784Z,102502.30
2018-02-18T07:38:09.378Z,102509.02
2018-02-18T07:40:36.924Z,102512.47
2018-02-18T07:43:05.440Z,102502.73
2018-02-18T07:45:33.058Z,102510.14
2018-02-18T07:48:00.612Z,102512.27
2018-02-18T07:50:28.172Z,102516.55
2018-02-18T07:52:55.754Z,102519.56
2018-02-18T07:55:23.306Z,102515.03
2018-02-18T07:57:50.906Z,102513.33
2018-02-18T08:00:18.467Z,102511.17
2018-02-18T08:02:46.026Z,102510.38
2018-02-18T08:05:13.583Z,102512.30
2018-02-18T08:07:41.139Z,102513.66
2018-02-18T08:10:08.736Z,102512.84
2018-02-18T08:12:36.305Z,102519.27
2018-02-18T08:15:03.866Z,102516.29
2018-02-18T08:17:31.418Z,102527.34
2018-02-18T08:19:59.021Z,102520.89
2018-02-18T08:22:26.572Z,102520.99
2018-02-18T08:24:54.160Z,102522.86
2018-02-18T08:27:21.750Z,102522.03
2018-02-18T08:29:49.303Z,102523.70
2018-02-18T08:32:16.906Z,102525.64
2018-02-18T08:34:44.459Z,102531.17
2018-02-18T08:37:12.011Z,102526.06
2018-02-18T08:39:39.563Z,102532.01
2018-02-18T08:42:07.124Z,102531.61
2018-02-18T08:44:34.718Z,102525.45
2018-02-18T08:47:02.292Z,102520.55
2018-02-18T08:49:29.844Z,102527.01
2018-02-18T08:51:57.402Z,102522.96
2018-02-18T08:54:25.419Z,102518.25
2018-02-18T08:56:52.980Z,102522.97
2018-02-18T08:59:20.536Z,102526.88
2018-02-18T09:01:48.087Z,102523.28
2018-02-18T09:04:15.677Z,102529.83
2018-02-18T09:06:43.259Z,102526.02
2018-02-18T09:09:10.823Z,102520.80
2018-02-18T09:11:38.434Z,102527.35
2018-02-18T09:14:06.029Z,102527.88
2018-02-18T09:16:33.614Z,102526.92
2018-02-18T09:19:01.192Z,102525.20
2018-02-18T09:21:28.739Z,102521.88
2018-02-18T09:23:56.328Z,102530.50
2018-02-18T09:26:24.730Z,102531.05
2018-02-18T09:28:52.330Z,102540.02
2018-02-18T09:31:19.882Z,102539.36
2018-02-18T09:33:47.459Z,102536.47
2018-02-18T09:36:15.002Z,102545.16
2018-02-18T09:38:42.556Z,102541.47
2018-02-18T09:41:10.134Z,102537.68
2018-02-18T09:43:37.679Z,102542.78
2018-02-18T09:46:05.265Z,102541.05
2018-02-18T09:48:32.811Z,102546.78
2018-02-18T09:51:00.404Z,102547.22
2018-02-18T09:53:27.959Z,102540.88
2018-02-18T09:55:55.499Z,102544.67
2018-02-18T09:58:23.053Z,102545.83
2018-02-18T10:00:51.549Z,102546.65
2018-02-18T10:03:19.096Z,102544.50
2018-02-18T10:05:46.651Z,102542.47
2018-02-18T10:08:14.212Z,102544.15
2018-02-18T10:10:41.759Z,102545.80
2018-02-18T10:13:09.307Z,102551.41
2018-02-18T10:15:36.860Z,102549.55
2018-02-18T10:18:04.416Z,102546.99
2018-02-18T10:20:31.968Z,102553.44
2018-02-18T10:22:59.524Z,102557.56
2018-02-18T10:25:27.071Z,102548.05
2018-02-18T10:27:54.698Z,102549.41
2018-02-18T10:30:22.244Z,102553.47
2018-02-18T10:32:49.809Z,102552.84
2018-02-18T10:35:17.351Z,102554.82
2018-02-18T10:37:44.894Z,102552.52
2018-02-18T10:40:12.471Z,102559.77
2018-02-18T10:42:40.015Z,102557.95
2018-02-18T10:45:07.559Z,102550.66
2018-02-18T10:47:35.112Z,102551.74
2018-02-18T10:50:02.655Z,102554.47
2018-02-18T10:52:30.199Z,102555.77
2018-02-18T10:54:57.750Z,102556.59
2018-02-18T10:57:25.294Z,102562.11
2018-02-18T10:59:52.843Z,102560.66
2018-02-18T11:02:20.460Z,102556.63
2018-02-18T11:04:49.234Z,102557.36
2018-02-18T11:07:16.855Z,102559.42
2018-02-18T11:09:44.462Z,102558.77
2018-02-18T11:12:12.008Z,102557.99
2018-02-18T11:14:39.598Z,102553.58
2018-02-18T11:17:07.153Z,102549.28
2018-02-18T11:19:34.733Z,102550.20
2018-02-18T11:22:02.320Z,102544.51
2018-02-18T11:24:29.866Z,102539.32
2018-02-18T11:26:57.407Z,102542.09
2018-02-18T11:29:24.961Z,102539.47
2018-02-18T11:31:52.518Z,102544.17
2018-02-18T11:34:20.069Z,102539.39
2018-02-18T11:36:47.622Z,102544.02
2018-02-18T11:39:15.198Z,102542.23
2018-02-18T11:41:42.743Z,102539.55
2018-02-18T11:44:10.300Z,102535.47
2018-02-18T11:46:37.885Z,102533.69
2018-02-18T11:49:05.423Z,102536.96
2018-02-18T11:51:33.008Z,102534.52
2018-02-18T11:54:00.551Z,102535.67
2018-02-18T11:56:28.136Z,102538.30
2018-02-18T11:58:55.689Z,102535.30
2018-02-18T12:01:23.327Z,102528.27
2018-02-18T12:03:50.896Z,102527.61
2018-02-18T12:06:18.477Z,102530.09
2018-02-18T12:08:46.083Z,102527.41
2018-02-18T12:11:13.627Z,102530.22
2018-02-18T12:13:41.235Z,102523.02
2018-02-18T12:16:08.782Z,102531.83
2018-02-18T12:18:36.379Z,102521.76
2018-02-18T12:21:03.937Z,102531.23
2018-02-18T12:23:31.515Z,102528.80
2018-02-18T12:25:59.060Z,102517.38
2018-02-18T12:28:26.651Z,102516.03
2018-02-18T12:30:54.190Z,102522.06
2018-02-18T12:33:21.866Z,102514.44
2018-02-18T12:35:49.453Z,102513.22
2018-02-18T12:38:17.061Z,102505.77
2018-02-18T12:40:44.623Z,102511.67
2018-02-18T12:43:12.174Z,102506.09
2018-02-18T12:45:39.754Z,102500.34
2018-02-18T12:48:08.118Z,102491.22
2018-02-18T12:50:35.705Z,102492.57
2018-02-18T12:53:03.311Z,102490.25
2018-02-18T12:55:30.894Z,102492.53
2018-02-18T12:57:58.443Z,102488.09
2018-02-18T13:00:26.035Z,102490.20
2018-02-18T13:02:53.592Z,102489.95
2018-02-18T13:05:21.176Z,102483.27
2018-02-18T13:07:48.759Z,102482.44
2018-02-18T13:10:16.356Z,102486.61
2018-02-18T13:12:44.704Z,102488.35
2018-02-18T13:15:12.291Z,102485.22
2018-02-18T13:17:39.852Z,102487.91
2018-02-18T13:20:07.398Z,102478.81
2018-02-18T13:22:34.943Z,102484.11
2018-02-18T13:25:02.492Z,102478.20
2018-02-18T13:27:30.039Z,102477.05
2018-02-18T13:29:57.587Z,102471.42
2018-02-18T13:32:25.187Z,102466.84
2018-02-18T13:34:52.707Z,102473.39
2018-02-18T13:37:20.261Z,102476.31
2018-02-18T13:39:47.814Z,102466.14
2018-02-18T13:42:15.356Z,102470.47
2018-02-18T13:44:42.903Z,102466.41
2018-02-18T13:47:10.462Z,102471.94
2018-02-18T13:49:38.002Z,102463.81
2018-02-18T13:52:05.548Z,102460.37
2018-02-18T13:54:33.189Z,102459.27
2018-02-18T13:59:34.816Z,102451.52
2018-02-18T14:02:02.527Z,102455.27
2018-02-18T14:04:30.123Z,102443.09
2018-02-18T14:06:57.678Z,102449.53
2018-02-18T14:09:25.227Z,102448.11
2018-02-18T14:11:52.768Z,102435.45
2018-02-18T14:14:20.325Z,102439.56
2018-02-18T14:16:47.913Z,102433.94
2018-02-18T14:19:15.453Z,102438.20
2018-02-18T14:21:43.047Z,102437.77
2018-02-18T14:24:10.595Z,102435.72
2018-02-18T14:26:38.132Z,102437.09
2018-02-18T14:29:05.686Z,102433.83
2018-02-18T14:31:33.292Z,102443.86
2018-02-18T14:34:00.839Z,102444.91
2018-02-18T14:36:28.437Z,102445.08
2018-02-18T14:38:56.064Z,102445.67
2018-02-18T14:41:35.474Z,102438.52
2018-02-18T14:44:14.976Z,102437.77
2018-02-18T14:46:54.458Z,102428.81
2018-02-18T14:49:33.836Z,102425.30
2018-02-18T14:55:18.148Z,102418.22
2018-02-18T14:57:45.699Z,102416.70
2018-02-18T15:00:13.239Z,102419.90
2018-02-18T15:02:40.783Z,102420.21
2018-02-18T15:05:08.384Z,102419.06
2018-02-18T15:07:35.930Z,102420.27
2018-02-18T15:10:03.566Z,102418.49
2018-02-18T15:12:31.124Z,102426.37
2018-02-18T15:14:58.672Z,102424.62
2018-02-18T15:17:26.220Z,102429.80
2018-02-18T15:19:53.818Z,102423.59
2018-02-18T15:22:21.364Z,102430.69
2018-02-18T15:24:48.923Z,102433.19
2018-02-18T15:27:16.464Z,102424.82
2018-02-18T15:29:44.017Z,102423.20
2018-02-18T15:32:11.594Z,102428.48
2018-02-18T15:34:39.217Z,102423.45
2018-02-18T15:37:06.770Z,102419.70
2018-02-18T15:39:34.370Z,102420.77
2018-02-18T15:42:01.946Z,102419.55
2018-02-18T15:44:29.494Z,102415.34
2018-02-18T15:46:57.137Z,102418.08
2018-02-18T15:49:24.650Z,102422.58
2018-02-18T15:51:52.201Z,102424.27
2018-02-18T15:54:19.751Z,102421.81
2018-02-18T15:56:47.292Z,102418.93
2018-02-18T15:59:14.845Z,102420.80
2018-02-18T16:01:42.404Z,102423.04
2018-02-18T16:04:09.951Z,102420.11
2018-02-18T16:06:37.556Z,102417.56
2018-02-18T16:09:05.100Z,102421.96
2018-02-18T16:11:32.690Z,102426.71
2018-02-18T16:14:00.239Z,102422.86
2018-02-18T16:16:27.795Z,102424.42
2018-02-18T16:18:55.349Z,102421.09
2018-02-18T16:21:22.895Z,102422.05
2018-02-18T16:23:50.762Z,102415.11
2018-02-18T16:26:18.351Z,102416.79
2018-02-18T16:28:45.901Z,102411.83
2018-02-18T16:31:13.448Z,102416.66
2018-02-18T16:33:41.000Z,102421.02
2018-02-18T16:36:08.544Z,102426.70
2018-02-18T16:38:36.096Z,102421.56
2018-02-18T16:41:03.650Z,102420.79
2018-02-18T16:43:31.235Z,102426.86
2018-02-18T16:45:58.775Z,102425.25
2018-02-18T16:48:26.396Z,102424.98
2018-02-18T16:50:53.975Z,102425.02
2018-02-18T16:53:21.552Z,102418.48
2018-02-18T16:55:49.100Z,102417.22
2018-02-18T16:58:16.651Z,102420.24
2018-02-18T17:00:44.199Z,102424.95
2018-02-18T17:03:11.746Z,102419.77
2018-02-18T17:05:39.291Z,102421.81
2018-02-18T17:08:06.827Z,102413.14
2018-02-18T17:10:34.431Z,102406.45
2018-02-18T17:13:01.983Z,102402.64
2018-02-18T17:15:29.564Z,102400.45
2018-02-18T17:17:57.230Z,102400.02
2018-02-18T17:20:24.816Z,102395.35
2018-02-18T17:22:52.368Z,102396.30
2018-02-18T17:25:19.915Z,102396.33
2018-02-18T17:27:47.460Z,102395.47
2018-02-18T17:30:15.009Z,102390.73
2018-02-18T17:32:42.603Z,102387.40
2018-02-18T17:35:10.150Z,102383.56
2018-02-18T17:37:37.743Z,102380.89
2018-02-18T17:40:06.986Z,102372.55
2018-02-18T17:42:34.534Z,102380.42
2018-02-18T17:45:02.101Z,102375.13
2018-02-18T17:47:29.652Z,102371.30
2018-02-18T17:49:57.251Z,102375.69
2018-02-18T17:52:24.807Z,102374.90
2018-02-18T17:54:52.481Z,102374.15
2018-02-18T17:57:20.028Z,102368.73
2018-02-18T17:59:47.629Z,102367.56
2018-02-18T18:02:15.233Z,102369.78
2018-02-18T18:04:42.791Z,102372.73
2018-02-18T18:07:10.345Z,102373.13
2018-02-18T18:09:37.895Z,102381.45
2018-02-18T18:12:05.449Z,102379.27
2018-02-18T18:14:32.996Z,102381.12
2018-02-18T18:17:00.600Z,102380.70
2018-02-18T18:19:28.163Z,102380.34
2018-02-18T18:21:55.748Z,102380.13
2018-02-18T18:24:23.351Z,102371.05
2018-02-18T18:26:50.939Z,102376.39
2018-02-18T18:29:18.500Z,102363.11
2018-02-18T18:31:46.096Z,102356.22
2018-02-18T18:34:13.760Z,102357.04
2018-02-18T18:36:41.385Z,102362.67
2018-02-18T18:39:08.983Z,102364.03
2018-02-18T18:41:36.575Z,102360.02
2018-02-18T18:44:04.131Z,102362.14
2018-02-18T18:46:31.687Z,102356.03
2018-02-18T18:48:59.244Z,102355.64
2018-02-18T18:51:27.608Z,102354.96
2018-02-18T18:53:55.221Z,102357.11
2018-02-18T18:56:22.772Z,102357.58
2018-02-18T18:58:50.367Z,102351.84
2018-02-18T19:01:17.985Z,102360.41
2018-02-18T19:03:45.580Z,102355.86
2018-02-18T19:08:40.017Z,102349.33
2018-02-18T19:11:07.576Z,102357.25
2018-02-18T19:13:35.257Z,102350.36
2018-02-18T19:16:02.812Z,102356.78
2018-02-18T19:18:30.371Z,102351.33
2018-02-18T19:20:57.927Z,102354.20
2018-02-18T19:23:25.484Z,102344.87
2018-02-18T19:25:53.039Z,102359.54
2018-02-18T19:28:20.593Z,102357.75
2018-02-18T19:30:48.307Z,102352.25
2018-02-18T19:33:15.879Z,102356.45
2018-02-18T19:35:43.439Z,102356.92
2018-02-18T19:38:10.996Z,102348.50
2018-02-18T19:40:38.552Z,102351.12
2018-02-18T19:43:06.113Z,102346.78
2018-02-18T19:45:33.671Z,102352.08
2018-02-18T19:48:01.264Z,102357.64
2018-02-18T19:50:28.824Z,102354.30
2018-02-18T19:52:56.464Z,102346.98
2018-02-18T19:55:24.019Z,102344.01
2018-02-18T19:57:51.689Z,102350.89
2018-02-18T20:00:19.251Z,102350.96
2018-02-18T20:02:47.516Z,102344.01
2018-02-18T20:05:15.067Z,102338.73
2018-02-18T20:07:42.668Z,102335.83
2018-02-18T20:10:10.233Z,102336.55
2018-02-18T20:12:38.620Z,102342.25
2018-02-18T20:15:06.176Z,102340.12
2018-02-18T20:17:33.840Z,102337.05
2018-02-18T20:20:01.403Z,102335.93
2018-02-18T20:22:28.961Z,102334.73
2018-02-18T20:24:57.258Z,102333.41
2018-02-18T20:27:24.925Z,102335.59
2018-02-18T20:29:53.110Z,102336.86
2018-02-18T20:32:20.772Z,102338.71
2018-02-18T20:34:48.365Z,102330.90
2018-02-18T20:37:15.973Z,102324.99
2018-02-18T20:39:43.584Z,102330.37
2018-02-18T20:42:11.181Z,102335.20
2018-02-18T20:44:38.771Z,102333.84
2018-02-18T20:47:06.321Z,102333.67
2018-02-18T20:49:33.924Z,102325.96
2018-02-18T20:52:01.484Z,102332.52
2018-02-18T20:54:29.032Z,102332.95
2018-02-18T20:56:56.583Z,102329.73
2018-02-18T20:59:24.174Z,102326.56
2018-02-18T21:01:51.732Z,102326.66
2018-02-18T21:04:19.370Z,102326.33
2018-02-18T21:06:46.967Z,102324.91
2018-02-18T21:09:14.587Z,102321.83
2018-02-18T21:11:42.132Z,102322.02
2018-02-18T21:14:09.716Z,102323.25
2018-02-18T21:16:37.279Z,102315.93
2018-02-18T21:19:04.873Z,102325.06
2018-02-18T21:21:32.427Z,102323.80
2018-02-18T21:26:26.999Z,102311.30
2018-02-18T21:28:54.548Z,102317.42
2018-02-18T21:31:22.135Z,102317.42
2018-02-18T21:33:49.689Z,102309.61
2018-02-18T21:36:17.303Z,102317.35
2018-02-18T21:38:44.860Z,102315.76
2018-02-18T21:41:12.446Z,102309.20
2018-02-18T21:43:39.993Z,102310.44
2018-02-18T21:46:07.585Z,102307.64
2018-02-18T21:48:35.248Z,102298.95
2018-02-18T21:51:02.878Z,102297.53
2018-02-18T21:53:30.472Z,102292.33
2018-02-18T21:55:58.024Z,102293.58
2018-02-18T21:58:25.619Z,102291.60
2018-02-18T22:00:53.253Z,102291.80
2018-02-18T22:03:20.816Z,102300.23
2018-02-18T22:05:48.369Z,102294.25
2018-02-18T22:08:15.917Z,102295.59
2018-02-18T22:10:43.465Z,102289.84
2018-02-18T22:13:11.020Z,102283.19
2018-02-18T22:15:38.611Z,102280.34
2018-02-18T22:18:06.163Z,102275.22
2018-02-18T22:20:33.752Z,102272.66
2018-02-18T22:23:01.305Z,102275.28
2018-02-18T22:25:28.890Z,102272.73
2018-02-18T22:27:56.443Z,102269.52
2018-02-18T22:30:23.999Z,102271.41
2018-02-18T22:32:51.587Z,102264.69
2018-02-18T22:35:19.178Z,102265.64
2018-02-18T22:37:46.768Z,102262.67
2018-02-18T22:40:14.339Z,102253.23
2018-02-18T22:42:41.935Z,102266.74
2018-02-18T22:45:09.479Z,102260.35
2018-02-18T22:47:37.036Z,102254.70
2018-02-18T22:50:04.603Z,102244.27
2018-02-18T22:52:32.162Z,102250.42
2018-02-18T22:54:59.842Z,102248.73
2018-02-18T22:57:27.396Z,102245.56
2018-02-18T22:59:54.944Z,102234.77
2018-02-18T23:02:22.500Z,102241.94
2018-02-18T23:04:50.058Z,102231.83
2018-02-18T23:07:17.610Z,102226.23
2018-02-18T23:09:45.170Z,102225.51
2018-02-18T23:12:12.716Z,102220.41
2018-02-18T23:14:40.263Z,102218.92
2018-02-18T23:17:07.815Z,102216.27
2018-02-18T23:19:35.410Z,102208.23
2018-02-18T23:22:02.961Z,102209.09
2018-02-18T23:24:30.510Z,102204.89
2018-02-18T23:26:58.059Z,102210.84
2018-02-18T23:29:25.608Z,102199.80
2018-02-18T23:31:53.154Z,102198.25
2018-02-18T23:34:20.706Z,102196.39
2018-02-18T23:36:48.292Z,102189.91
2018-02-18T23:39:15.842Z,102188.55
2018-02-18T23:41:43.414Z,102181.12
2018-02-18T23:44:11.002Z,102183.84
2018-02-18T23:46:38.662Z,102185.17
2018-02-18T23:49:06.207Z,102179.55
2018-02-18T23:51:33.856Z,102175.45
2018-02-18T23:54:01.398Z,102183.52
2018-02-18T23:56:29.088Z,102174.92
2018-02-18T23:58:56.678Z,102177.03
